x

La Have Bank (44150) Weather Station

4:00pm - Thu 24th Apr 2014 All times are ADT. -3 hours from GMT.

  • Wind
    18mph
  • Sea Temp 60°f
  • Sea Pressure 985.9mb
  • La Have Bank
  • La Have Bank

More Historic Weather Station data

Upgrade to MSW Pro to gain access to the past 30 days of data for over 8000 Wavebouys and Weather Stations around the globe.

Join Pro

Comparision Forecast

View Surf forecast
   
Thu 04/24 4:00pm  -   -  18
mph
985.9mb 60f
3:00pm 9ft 8s 16 20 mph 985.3mb 60f
2:00pm 7.5ft 9s 22 27 mph 985.7mb 59f
1:00pm 7ft 9s 20 25 mph 985.7mb 59f
12:00pm 6ft 9s 20 25 mph 985.8mb 59f
11:00am 5.5ft 8s 18 22 mph 985.8mb 59f
10:00am 4.5ft 8s 13 18 mph 985.7mb 59f
9:00am 4.5ft 10s 13 18 mph 985.8mb 59f
8:00am 4.5ft 10s 13 16 mph 985.9mb 59f
7:00am 4.5ft 9s 18 22 mph 986.3mb 59f
6:00am 4.5ft  -  18 22 mph 986.1mb 59f
5:00am 4.5ft 8s 18 22 mph 986.6mb 59f
4:00am 5ft 8s 16 18 mph 987.3mb 59f
3:00am 4.5ft 9s 18 20 mph 987.9mb 59f
2:00am 4.5ft  -  13 18 mph 988.7mb 59f
1:00am 4.5ft 9s 11 16 mph 989.8mb 56f
12:00am 4.5ft 10s 13 16 mph 990.6mb 53f
Wed 04/23 11:00pm 4.5ft 8s 9 11 mph 992.1mb 54f
10:00pm 4.5ft 10s 18 20 mph 992.9mb 54f
9:00pm 5ft 8s 20 25 mph 993.6mb 53f
8:00pm 5ft 8s 13 18 mph 993.9mb 53f
7:00pm 4.5ft 8s 16 18 mph 994mb 53f
6:00pm 4.5ft 8s 13 16 mph 995.4mb 53f
5:00pm 4.5ft 7s 13 16 mph 996.1mb 53f
4:00pm 4.5ft 8s 11 13 mph 996.9mb 53f
3:00pm 4ft 8s 11 13 mph 997.5mb 53f
2:00pm 4.5ft 8s 13 16 mph 998.2mb 53f
1:00pm 4ft 8s 13 16 mph 998.9mb 53f
12:00pm 4ft 8s 11
mph
999.5mb 54f
11:00am 4ft 8s 9
mph
999.9mb 53f
10:00am 3.5ft 8s 9
mph
1000.2mb 54f
9:00am 4ft 8s 4 7 mph 1000.6mb 55f
8:00am 4ft 8s 7 9 mph 1000.9mb 55f
7:00am 3.5ft 8s 9
mph
1000.6mb 55f
6:00am 4ft 8s 7
mph
1000.6mb 55f
5:00am 3.5ft 8s 4 7 mph 1000.6mb 54f
4:00am 3.5ft 8s 7 9 mph 1001.1mb 54f
3:00am 3.5ft 7s 7
mph
1001.7mb 55f
2:00am 3.5ft 7s 7 9 mph 1002.3mb 55f
1:00am 3.5ft 14s 11 13 mph 1002.7mb 56f
12:00am 3.5ft 7s 11 13 mph 1003.5mb 57f
Tue 04/22 11:00pm 3.5ft 7s 13 16 mph 1004.3mb 57f
10:00pm 3.5ft 15s 11 13 mph 1005mb 57f
9:00pm 3.5ft 15s 11 13 mph 1005mb 57f
8:00pm 3.5ft 8s 13 16 mph 1005mb 58f
7:00pm 3.5ft 8s 11 13 mph 1005.1mb 58f
6:00pm 3.5ft 7s 9 11 mph 1005.6mb 58f
5:00pm 3.5ft 7s 11
mph
1006.2mb 59f
4:00pm 3.5ft 8s 11 13 mph 1006.8mb 58f
3:00pm 3.5ft 8s 9
mph
1007.6mb 58f
2:00pm 3ft 14s 9
mph
1008.1mb 58f
1:00pm 2.5ft 15s 7 9 mph 1008.8mb 58f
12:00pm 2.5ft 14s 9 11 mph 1009.3mb 58f
11:00am 2.5ft 14s 9 11 mph 1009.7mb 57f
10:00am 2.5ft 15s 9 11 mph 1009.7mb 57f
9:00am 2.5ft 15s 9
mph
1010.3mb 57f
8:00am 2.5ft 15s 7 9 mph 1010.5mb 57f
7:00am 2.5ft  -  9
mph
1011mb 57f
6:00am 3ft 15s 11 13 mph 1010.9mb 57f
5:00am 3ft 15s 13 16 mph 1011.1mb 56f
4:00am 3.5ft 15s 13 18 mph 1011.9mb 56f
3:00am 3ft  -  16 18 mph 1012.3mb 56f
2:00am 3ft 15s 13 16 mph 1013.3mb 57f
1:00am 3.5ft  -  16 18 mph 1014.3mb 56f
12:00am 3.5ft  -  16 20 mph 1014.8mb 56f
Mon 04/21 11:00pm 3ft 4s 16 20 mph 1015.4mb 56f
10:00pm 3ft  -  16 20 mph 1016.2mb 56f
9:00pm 2.5ft  -  18 20 mph 1016.5mb 56f
8:00pm 3ft  -  13 16 mph 1016.9mb 56f
7:00pm 3ft  -  13 18 mph 1017.4mb 56f
6:00pm 3ft  -  13 16 mph 1018.1mb 55f
5:00pm 3ft  -  13 16 mph 1018.7mb 56f
4:00pm 3.5ft  -  13 18 mph 1019.8mb 56f
3:00pm 3.5ft  -  16 18 mph 1021mb 56f
2:00pm 3.5ft  -  13 18 mph 1021.9mb 56f
1:00pm 3ft  -  16 18 mph 1023mb 56f
12:00pm 3ft  -  13 18 mph 1023.8mb 56f
11:00am 2.5ft 16s 13 20 mph 1024.3mb 55f
10:00am 2.5ft 16s 13 16 mph 1024.7mb 55f
9:00am 2.5ft 17s 9 13 mph 1025.4mb 54f
8:00am 2ft 17s 9 13 mph 1025.9mb 54f
7:00am 2.5ft 17s 7 9 mph 1026.3mb 54f
6:00am 2.5ft 17s 4 9 mph 1026.5mb 54f
5:00am 2.5ft 16s 2 4 mph 1027.1mb 54f
4:00am 2.5ft 16s 4 7 mph 1027.6mb 54f
3:00am 2.5ft 17s 9 11 mph 1028.1mb 54f
2:00am 2.5ft 8s 7 9 mph 1028.7mb 54f
1:00am 2.5ft 8s 9 13 mph 1029.5mb 54f
12:00am 2.5ft 8s 9 11 mph 1030.2mb 54f
Sun 04/20 11:00pm 2.5ft 8s 9 13 mph 1030.3mb 54f
10:00pm 3ft 8s 4 9 mph 1030.5mb 54f
9:00pm 3.5ft 8s 4 7 mph 1030.4mb 55f